Time;durP1;ratioP1;P1;durP2;ratioP2;P2;SDS_P1;SDS_P2;PMS_P1;PMS_P2;Temp;Humidity;BMP_temperature;BMP_pressure;BME280_temperature;BME280_humidity;BME280_pressure;Samples;Min_cycle;Max_cycle;Signal;HPM_P1;HPM_P2
2022/10/11 09:45:57;;;;;;;4.53;4.13;;;;;;;;;;6193202;23;20008;-82
2022/10/11 09:48:26;;;;;;;85.47;11.07;;;;;;;;;;6247197;23;20257;-75
2022/10/11 09:50:57;;;;;;;7.50;4.40;;;;;;;;;;6247285;22;20000;-76
2022/10/11 09:53:48;;;;;;;4.65;4.20;;;;;;;;;;6246939;23;20020;-76
2022/10/11 09:56:14;;;;;;;4.60;4.20;;;;;;;;;;6246696;23;20419;-75
2022/10/11 09:58:39;;;;;;;5.55;4.15;;;;;;;;;;6246671;23;20047;-77
2022/10/11 10:01:26;;;;;;;6.85;4.40;;;;;;;;;;6246818;22;20000;-77
2022/10/11 10:04:11;;;;;;;6.38;5.00;;;;;;;;;;6246556;23;20351;-78
2022/10/11 10:06:37;;;;;;;4.65;4.18;;;;;;;;;;6246940;23;20027;-79
2022/10/11 10:09:26;;;;;;;5.18;4.68;;;;;;;;;;6246947;23;20004;-84
2022/10/11 10:11:54;;;;;;;5.18;4.32;;;;;;;;;;6246985;22;20420;-81
2022/10/11 10:14:29;;;;;;;4.55;4.15;;;;;;;;;;6247113;23;20007;-81
2022/10/11 10:17:15;;;;;;;6.35;5.38;;;;;;;;;;6247602;23;20490;-82
2022/10/11 10:19:50;;;;;;;5.82;4.75;;;;;;;;;;6246801;23;20430;-81
2022/10/11 10:22:22;;;;;;;6.28;4.40;;;;;;;;;;6246040;22;20069;-82
2022/10/11 10:24:50;;;;;;;6.72;4.47;;;;;;;;;;6246861;23;20011;-84
2022/10/11 10:27:20;;;;;;;5.65;4.70;;;;;;;;;;6246566;23;19996;-81
2022/10/11 10:30:07;;;;;;;5.70;4.70;;;;;;;;;;6219329;23;20387;-80
2022/10/11 10:32:59;;;;;;;6.13;4.60;;;;;;;;;;6219489;23;20008;-85
2022/10/11 10:35:28;;;;;;;4.30;3.90;;;;;;;;;;6246688;23;20004;-84
2022/10/11 10:38:10;;;;;;;6.28;4.40;;;;;;;;;;6246485;23;20000;-85
2022/10/11 10:40:43;;;;;;;5.63;3.95;;;;;;;;;;6246515;23;19996;-89
2022/10/11 10:43:15;;;;;;;5.03;4.53;;;;;;;;;;6219888;23;20012;-87
2022/10/11 10:46:04;;;;;;;5.78;4.10;;;;;;;;;;6249552;23;20062;-88
2022/10/11 10:48:41;;;;;;;5.70;4.50;;;;;;;;;;6247014;23;20001;-82
2022/10/11 10:51:45;;;;;;;7.88;4.80;;;;;;;;;;6246869;22;19996;-83
2022/10/11 10:54:23;;;;;;;6.40;4.57;;;;;;;;;;6223452;23;20075;-80
2022/10/11 10:56:58;;;;;;;5.15;4.45;;;;;;;;;;6246313;23;20003;-81
2022/10/11 10:59:29;;;;;;;6.22;4.80;;;;;;;;;;6246411;23;20004;-81
2022/10/11 11:02:07;;;;;;;4.50;4.10;;;;;;;;;;6246314;22;20007;-82
2022/10/11 11:04:34;;;;;;;6.57;4.57;;;;;;;;;;6246703;23;20007;-82
2022/10/11 11:07:17;;;;;;;6.25;4.55;;;;;;;;;;6246399;23;20443;-82
2022/10/11 11:10:02;;;;;;;6.57;4.47;;;;;;;;;;6246502;23;20008;-84
2022/10/11 11:12:59;;;;;;;6.13;3.60;;;;;;;;;;6246684;22;20019;-84
2022/10/11 11:16:00;;;;;;;5.13;3.92;;;;;;;;;;6220629;23;20074;-83
2022/10/11 11:18:28;;;;;;;12.07;4.72;;;;;;;;;;6165723;23;20012;-83
2022/10/11 11:21:32;;;;;;;5.75;3.80;;;;;;;;;;6248539;22;20011;-83
2022/10/11 11:24:21;;;;;;;9.82;6.43;;;;;;;;;;6248144;23;20008;-82
2022/10/11 11:26:46;;;;;;;;;;;;;;;;;;6248954;23;20027;-83
2022/10/11 11:29:11;;;;;;;6.20;4.10;;;;;;;;;;6248267;23;20346;-83
2022/10/11 11:32:02;;;;;;;5.90;3.95;;;;;;;;;;6248132;22;20256;-83
2022/10/11 11:34:37;;;;;;;5.85;4.07;;;;;;;;;;6248305;23;20434;-85
2022/10/11 11:37:31;;;;;;;5.30;4.00;;;;;;;;;;6249239;23;20339;-80
2022/10/11 11:40:20;;;;;;;5.05;3.65;;;;;;;;;;6248645;23;20304;-84
2022/10/11 11:42:56;;;;;;;;;;;;;;;;;;6200705;23;20012;-88
2022/10/11 11:45:23;;;;;;;7.38;4.05;;;;;;;;;;6248375;23;19911;-89
2022/10/11 17:29:39;;;;;;;5.07;4.57;;;;;;;;;;6151550;23;20030;-79
2022/10/11 17:32:05;;;;;;;6.72;4.88;;;;;;;;;;6157056;23;20018;-77
2022/10/11 17:34:30;;;;;;;4.57;4.00;;;;;;;;;;6158090;23;20007;-80
2022/10/11 17:36:56;;;;;;;4.90;4.13;;;;;;;;;;6180760;23;20005;-80
2022/10/11 17:39:22;;;;;;;5.90;3.85;;;;;;;;;;6186718;23;20005;-80
2022/10/11 17:41:49;;;;;;;4.20;3.72;;;;;;;;;;6160253;23;20084;-80
2022/10/11 17:44:17;;;;;;;4.68;3.60;;;;;;;;;;6186671;23;19997;-81
2022/10/11 17:46:43;;;;;;;5.23;3.70;;;;;;;;;;6186313;23;20001;-81
2022/10/11 17:49:10;;;;;;;4.75;4.07;;;;;;;;;;6186299;23;20233;-80
2022/10/11 17:51:36;;;;;;;6.03;4.10;;;;;;;;;;6186538;23;20001;-82
2022/10/11 17:54:03;;;;;;;4.28;3.85;;;;;;;;;;6160033;23;20017;-81
2022/10/11 17:56:29;;;;;;;7.60;5.25;;;;;;;;;;6186051;23;20008;-82
2022/10/11 17:58:56;;;;;;;7.55;5.25;;;;;;;;;;6186652;23;20008;-85
2022/10/11 18:01:24;;;;;;;6.97;5.40;;;;;;;;;;6160375;23;20004;-87
2022/10/11 18:04:00;;;;;;;6.63;5.07;;;;;;;;;;6186463;23;20004;-85
2022/10/11 18:06:29;;;;;;;6.40;4.72;;;;;;;;;;6186599;23;20451;-86
2022/10/11 18:08:57;;;;;;;5.28;4.85;;;;;;;;;;6186283;23;20005;-85
2022/10/11 18:11:23;;;;;;;5.18;4.03;;;;;;;;;;6186409;23;20005;-84
2022/10/11 18:13:51;;;;;;;4.60;3.90;;;;;;;;;;6186538;23;20015;-84
2022/10/11 18:16:20;;;;;;;9.10;6.97;;;;;;;;;;6186324;23;20417;-87
2022/10/11 18:18:46;;;;;;;7.80;6.38;;;;;;;;;;6187846;23;20005;-93
2022/10/11 18:21:11;;;;;;;7.13;4.85;;;;;;;;;;6188673;23;20005;-91
2022/10/11 18:23:37;;;;;;;6.55;4.55;;;;;;;;;;6188106;23;20016;-96
2022/10/11 18:26:20;;;;;;;7.30;4.65;;;;;;;;;;6187799;23;20376;-94
2022/10/11 18:28:47;;;;;;;9.45;8.35;;;;;;;;;;6188113;23;20009;-94
2022/10/11 18:31:22;;;;;;;8.18;6.85;;;;;;;;;;6187379;23;19997;-86
2022/10/11 18:33:49;;;;;;;6.68;5.97;;;;;;;;;;6190391;23;20012;-86
2022/10/11 18:36:23;;;;;;;6.15;5.53;;;;;;;;;;6189397;23;20059;-90
2022/10/11 18:38:53;;;;;;;5.70;4.55;;;;;;;;;;6188668;23;20041;-90
2022/10/11 18:41:21;;;;;;;5.90;4.78;;;;;;;;;;6164539;23;20005;-89
2022/10/11 18:43:52;;;;;;;9.35;6.10;;;;;;;;;;6187639;23;20320;-88
2022/10/11 18:46:19;;;;;;;9.52;8.35;;;;;;;;;;6186308;23;20437;-88
2022/10/11 18:48:46;;;;;;;8.57;6.97;;;;;;;;;;6160174;23;20055;-89
2022/10/11 18:51:14;;;;;;;6.85;6.15;;;;;;;;;;6186490;23;20001;-85
2022/10/11 18:53:41;;;;;;;9.65;5.13;;;;;;;;;;6186383;23;20009;-86
2022/10/11 18:56:14;;;;;;;6.82;5.85;;;;;;;;;;6186724;23;20001;-85
2022/10/11 18:58:40;;;;;;;10.43;7.03;;;;;;;;;;6187205;23;20009;-86
2022/10/11 19:01:12;;;;;;;8.98;6.05;;;;;;;;;;6186253;23;20028;-87
2022/10/11 19:03:38;;;;;;;5.78;4.90;;;;;;;;;;6159691;23;20391;-85
2022/10/11 19:06:05;;;;;;;4.70;4.22;;;;;;;;;;6186329;23;20024;-87
2022/10/11 19:08:31;;;;;;;6.72;4.40;;;;;;;;;;6159621;23;20395;-86
2022/10/11 19:11:03;;;;;;;5.03;4.35;;;;;;;;;;6184311;23;20070;-87
2022/10/11 19:13:28;;;;;;;5.80;4.20;;;;;;;;;;6186249;23;20454;-86
2022/10/11 19:15:54;;;;;;;6.05;3.80;;;;;;;;;;6186137;23;20009;-86
2022/10/11 19:18:19;;;;;;;6.15;4.10;;;;;;;;;;6186057;23;20431;-86
2022/10/11 19:20:45;;;;;;;5.20;4.40;;;;;;;;;;6186266;23;20412;-87
2022/10/11 19:23:10;;;;;;;4.95;4.43;;;;;;;;;;6185831;23;20495;-86
2022/10/11 19:25:35;;;;;;;4.53;4.10;;;;;;;;;;6185853;23;20443;-87
2022/10/11 19:28:01;;;;;;;5.20;4.70;;;;;;;;;;6187082;23;20002;-86
2022/10/11 19:30:26;;;;;;;9.27;4.70;;;;;;;;;;6185968;23;20088;-86
2022/10/11 19:32:52;;;;;;;5.25;4.10;;;;;;;;;;6186116;23;20009;-89
2022/10/11 19:35:17;;;;;;;5.93;4.45;;;;;;;;;;6186173;23;20005;-86
2022/10/11 19:37:43;;;;;;;4.70;4.20;;;;;;;;;;6188181;23;20012;-90
2022/10/11 19:40:08;;;;;;;4.97;4.32;;;;;;;;;;6188654;23;20024;-90
2022/10/11 19:42:34;;;;;;;5.57;4.30;;;;;;;;;;6188242;23;20001;-93
2022/10/11 19:45:00;;;;;;;5.05;4.55;;;;;;;;;;6187828;23;20135;-83
2022/10/11 19:47:25;;;;;;;5.32;4.53;;;;;;;;;;6187504;23;20011;-83
2022/10/11 19:49:50;;;;;;;5.55;4.13;;;;;;;;;;6187699;23;20001;-85
2022/10/11 19:52:16;;;;;;;7.13;4.50;;;;;;;;;;6187603;23;20009;-85
2022/10/11 19:54:42;;;;;;;5.60;4.68;;;;;;;;;;6187697;23;20423;-88
2022/10/11 19:57:08;;;;;;;7.15;5.40;;;;;;;;;;6161340;23;20503;-86
2022/10/11 19:59:33;;;;;;;6.60;5.65;;;;;;;;;;6187916;23;20028;-89
2022/10/11 20:01:59;;;;;;;8.00;5.90;;;;;;;;;;6187603;23;20417;-88
2022/10/11 20:04:25;;;;;;;7.00;5.72;;;;;;;;;;6187412;23;20435;-83
2022/10/11 20:06:50;;;;;;;7.07;5.45;;;;;;;;;;6187195;23;20005;-82
2022/10/11 20:09:15;;;;;;;6.90;5.00;;;;;;;;;;6187550;23;20012;-83
2022/10/11 20:11:41;;;;;;;7.95;4.40;;;;;;;;;;6187210;23;20324;-84
2022/10/11 20:14:07;;;;;;;6.30;4.10;;;;;;;;;;6187610;23;20087;-85
2022/10/11 20:16:32;;;;;;;5.18;4.55;;;;;;;;;;6187672;23;20008;-90
2022/10/11 20:18:59;;;;;;;5.75;4.82;;;;;;;;;;6187625;23;20009;-84
2022/10/11 20:21:26;;;;;;;6.05;4.70;;;;;;;;;;6187316;23;20420;-84
2022/10/11 20:23:56;;;;;;;7.55;4.78;;;;;;;;;;6187204;23;20013;-84
2022/10/11 20:26:23;;;;;;;4.72;4.13;;;;;;;;;;6160684;23;19997;-84
2022/10/11 20:28:51;;;;;;;6.93;4.70;;;;;;;;;;6187482;23;20036;-84
2022/10/11 20:31:24;;;;;;;9.73;5.03;;;;;;;;;;6161083;23;20032;-84
2022/10/11 20:33:49;;;;;;;6.15;5.32;;;;;;;;;;6185955;23;20005;-85
2022/10/11 20:36:19;;;;;;;8.00;5.63;;;;;;;;;;6186952;23;20005;-86
2022/10/11 20:38:47;;;;;;;9.18;6.43;;;;;;;;;;6187076;23;19997;-86
2022/10/11 20:41:43;;;;;;;6.72;5.50;;;;;;;;;;6186931;23;20005;-86
2022/10/11 20:44:10;;;;;;;8.25;5.78;;;;;;;;;;6186316;23;20016;-85
2022/10/11 20:46:37;;;;;;;9.73;6.40;;;;;;;;;;6186622;23;20059;-86
2022/10/11 20:49:05;;;;;;;7.50;6.10;;;;;;;;;;6160743;23;20403;-84
2022/10/11 20:51:33;;;;;;;6.82;6.03;;;;;;;;;;6160534;23;20012;-85
2022/10/11 20:54:00;;;;;;;7.78;6.47;;;;;;;;;;6186810;23;20068;-84
2022/10/11 20:56:26;;;;;;;7.22;6.05;;;;;;;;;;6186490;23;20069;-85
2022/10/11 20:58:54;;;;;;;7.80;6.35;;;;;;;;;;6160329;23;20037;-86
2022/10/11 21:01:22;;;;;;;6.78;6.07;;;;;;;;;;6187004;23;20009;-85
2022/10/11 21:03:47;;;;;;;8.07;7.00;;;;;;;;;;6186509;23;20456;-86
2022/10/11 21:06:13;;;;;;;9.57;6.65;;;;;;;;;;6186862;23;20001;-87
2022/10/11 21:08:39;;;;;;;9.70;6.60;;;;;;;;;;6186943;23;20016;-87
2022/10/11 21:11:05;;;;;;;8.82;7.50;;;;;;;;;;6186892;23;20357;-85
2022/10/11 21:13:31;;;;;;;8.57;7.28;;;;;;;;;;6186781;23;20009;-86
2022/10/11 21:16:10;;;;;;;7.35;6.55;;;;;;;;;;6186710;23;20093;-86
2022/10/11 21:18:35;;;;;;;8.25;7.38;;;;;;;;;;6186820;23;20005;-86
2022/10/11 21:21:09;;;;;;;8.38;7.28;;;;;;;;;;6186894;23;20071;-86
2022/10/11 21:23:35;;;;;;;8.98;7.00;;;;;;;;;;6186507;23;20008;-86
2022/10/11 21:26:06;;;;;;;7.45;6.60;;;;;;;;;;6160271;23;20365;-86
2022/10/11 21:28:33;;;;;;;7.82;7.10;;;;;;;;;;6186800;23;20080;-86
2022/10/11 21:31:08;;;;;;;11.15;7.03;;;;;;;;;;6186856;23;20001;-84
2022/10/11 21:33:35;;;;;;;9.52;7.20;;;;;;;;;;6188967;23;20009;-86
2022/10/11 21:36:06;;;;;;;7.70;6.90;;;;;;;;;;6160110;23;20028;-87
2022/10/11 21:38:32;;;;;;;8.18;5.45;;;;;;;;;;6186428;23;20005;-88
2022/10/11 21:40:57;;;;;;;5.43;4.80;;;;;;;;;;6186699;23;20075;-86
2022/10/11 21:43:23;;;;;;;6.32;5.30;;;;;;;;;;6186523;23;20400;-86
2022/10/11 21:45:49;;;;;;;7.63;5.07;;;;;;;;;;6160071;23;20318;-86
2022/10/11 21:48:14;;;;;;;7.50;5.03;;;;;;;;;;6186536;23;19997;-87
2022/10/11 21:50:40;;;;;;;6.18;5.45;;;;;;;;;;6186589;23;20001;-87
2022/10/11 21:53:05;;;;;;;8.02;5.43;;;;;;;;;;6186444;23;20000;-87
2022/10/11 21:55:31;;;;;;;6.65;5.07;;;;;;;;;;6186778;23;20360;-86
2022/10/11 21:57:56;;;;;;;8.93;5.32;;;;;;;;;;6184586;23;20005;-88
2022/10/11 22:00:21;;;;;;;7.78;4.88;;;;;;;;;;6186422;23;20381;-87
2022/10/11 22:02:47;;;;;;;5.43;4.85;;;;;;;;;;6186287;23;20001;-83
